Terminal Aerodrome Forecast
Issued by NWS

Home | Current Version | Previous Version | Text Only | Print | Product List | Glossary On
Versions: 1 2 3 4 5 6 7 8 9 10 11 12 13 14 15 16 17 18 19
000
FTUS41 KPHI 281120
TAFMIV
TAF
KMIV 281120Z 2812/0112 00000KT P6SM BKN050 BKN090
     FM281500 18005KT P6SM SCT250
     FM282300 14005KT P6SM BKN040 OVC100
     FM010200 16005KT 2SM SHRA BR BKN015 OVC025
     FM010400 17005KT 2SM SHRA BR SCT003 OVC008 WS020/21035KT
     FM010600 20008KT 2SM BR OVC003 WS020/22040KT=

USA.gov is the U.S. government's official web portal to all federal, state and local government web resources and services.